Time;durP1;ratioP1;P1;durP2;ratioP2;P2;SDS_P1;SDS_P2;PMS_P1;PMS_P2;Temp;Humidity;BMP_temperature;BMP_pressure;BME280_temperature;BME280_humidity;BME280_pressure;Samples;Min_cycle;Max_cycle;Signal;HPM_P1;HPM_P2
2023/09/21 00:01:17;;;;;;;0.50;0.50;;;25.60;51.70;;;;;;5060105;27;93093;-56
2023/09/21 00:03:48;;;;;;;2.53;0.70;;;25.70;51.80;;;;;;5060324;27;93851;-56
2023/09/21 00:06:17;;;;;;;0.40;0.40;;;25.60;51.70;;;;;;5060981;27;92831;-56
2023/09/21 00:08:47;;;;;;;0.77;0.53;;;25.60;51.70;;;;;;5042164;27;91559;-56
2023/09/21 00:11:16;;;;;;;2.17;0.73;;;25.60;52.30;;;;;;5040103;28;93202;-56
2023/09/21 00:13:44;;;;;;;0.43;0.40;;;25.60;51.70;;;;;;5039405;28;92214;-56
2023/09/21 00:16:14;;;;;;;0.53;0.53;;;25.60;51.70;;;;;;5040199;28;92831;-56
2023/09/21 00:18:43;;;;;;;1.53;0.50;;;25.60;51.70;;;;;;5039822;28;92104;-56
2023/09/21 00:21:12;;;;;;;0.50;0.40;;;25.60;51.70;;;;;;5041322;27;92062;-56
2023/09/21 00:23:41;;;;;;;0.40;0.40;;;25.60;51.70;;;;;;5058309;27;93601;-56
2023/09/21 00:26:12;;;;;;;0.50;0.50;;;25.60;51.70;;;;;;5040702;28;92088;-56
2023/09/21 00:28:43;;;;;;;1.20;0.63;;;25.60;51.70;;;;;;5057588;27;92118;-57
2023/09/21 00:31:13;;;;;;;0.63;0.53;;;25.60;51.70;;;;;;5058916;27;93296;-57
2023/09/21 00:33:42;;;;;;;0.70;0.53;;;25.50;51.70;;;;;;5043459;27;92670;-56
2023/09/21 00:36:13;;;;;;;3.97;0.77;;;25.60;51.80;;;;;;5052364;27;91882;-56
2023/09/21 00:38:41;;;;;;;1.07;0.77;;;25.60;51.70;;;;;;5059252;27;92060;-56
2023/09/21 00:41:10;;;;;;;0.50;0.47;;;25.60;51.70;;;;;;5058314;27;94130;-56
2023/09/21 00:43:39;;;;;;;1.30;0.70;;;25.60;51.70;;;;;;5059172;27;94743;-56
2023/09/21 00:46:07;;;;;;;0.77;0.57;;;25.50;51.70;;;;;;5058635;27;91877;-56
2023/09/21 00:48:42;;;;;;;1.60;0.73;;;25.60;51.70;;;;;;5059907;27;92079;-56
2023/09/21 00:51:12;;;;;;;3.83;0.70;;;25.60;51.80;;;;;;5039238;28;92074;-56
2023/09/21 00:53:40;;;;;;;0.70;0.57;;;25.60;51.70;;;;;;5039616;28;93160;-56
2023/09/21 00:56:11;;;;;;;1.10;1.00;;;25.50;51.70;;;;;;5039597;28;91896;-56
2023/09/21 00:58:42;;;;;;;0.67;0.60;;;25.60;51.80;;;;;;5039395;28;91989;-56
2023/09/21 01:01:27;;;;;;;0.57;0.57;;;25.60;51.80;;;;;;5039199;28;94213;-56
2023/09/21 01:03:58;;;;;;;0.53;0.40;;;25.60;51.80;;;;;;5037840;28;92776;-56
2023/09/21 01:06:26;;;;;;;0.50;0.50;;;25.50;51.70;;;;;;5037506;28;92987;-56
2023/09/21 01:08:56;;;;;;;0.80;0.47;;;25.50;51.70;;;;;;5039360;28;92083;-56
2023/09/21 01:11:25;;;;;;;0.70;0.63;;;25.50;51.70;;;;;;5039307;28;93133;-56
2023/09/21 01:13:53;;;;;;;0.77;0.47;;;25.50;51.70;;;;;;5038829;28;92684;-56
2023/09/21 01:16:23;;;;;;;0.40;0.40;;;25.50;51.70;;;;;;5039075;28;91980;-56
2023/09/21 01:18:52;;;;;;;0.80;0.57;;;25.50;51.70;;;;;;5034409;28;92041;-56
2023/09/21 01:21:27;;;;;;;0.77;0.30;;;25.60;51.80;;;;;;5038707;28;92115;-56
2023/09/21 01:23:57;;;;;;;0.40;0.30;;;25.50;51.70;;;;;;5038238;27;93563;-56
2023/09/21 01:26:25;;;;;;;1.13;0.53;;;25.50;51.70;;;;;;5038915;27;92093;-56
2023/09/21 01:28:56;;;;;;;1.80;0.60;;;25.60;51.80;;;;;;5038539;28;92741;-56
2023/09/21 01:31:24;;;;;;;5.43;0.60;;;25.60;51.80;;;;;;5037517;28;93982;-56
2023/09/21 01:33:53;;;;;;;0.67;0.60;;;25.60;51.80;;;;;;5037288;28;93696;-56
2023/09/21 01:36:23;;;;;;;1.10;0.70;;;25.60;51.80;;;;;;5038699;28;93906;-56
2023/09/21 01:38:52;;;;;;;0.60;0.60;;;25.60;51.70;;;;;;5038630;28;92057;-56
2023/09/21 01:41:22;;;;;;;0.87;0.70;;;25.50;51.70;;;;;;5037738;28;93073;-56
2023/09/21 01:43:50;;;;;;;0.70;0.70;;;25.60;51.80;;;;;;5037138;28;93789;-56
2023/09/21 01:46:21;;;;;;;1.10;0.60;;;25.60;51.90;;;;;;5038543;28;92080;-56
2023/09/21 01:48:51;;;;;;;0.80;0.80;;;25.60;51.80;;;;;;5042066;27;91322;-56
2023/09/21 01:51:20;;;;;;;0.43;0.43;;;25.60;51.80;;;;;;5037827;27;93239;-56
2023/09/21 01:53:48;;;;;;;0.50;0.50;;;25.60;51.80;;;;;;5027493;28;92877;-56
2023/09/21 01:56:17;;;;;;;2.10;0.50;;;25.60;51.80;;;;;;5037995;28;93003;-56
2023/09/21 01:58:47;;;;;;;0.40;0.40;;;25.60;51.80;;;;;;5037857;27;92013;-56
2023/09/21 02:01:17;;;;;;;0.60;0.60;;;25.60;51.80;;;;;;5038508;28;93902;-56
2023/09/21 02:03:45;;;;;;;0.90;0.43;;;25.50;51.80;;;;;;5038072;28;94104;-56
2023/09/21 02:06:15;;;;;;;1.13;0.57;;;25.50;51.80;;;;;;5037706;28;91773;-56
2023/09/21 02:08:44;;;;;;;1.53;0.70;;;25.50;51.80;;;;;;5037382;28;92104;-56
2023/09/21 02:11:13;;;;;;;1.47;0.50;;;25.50;52.50;;;;;;5034773;28;93022;-56
2023/09/21 02:13:41;;;;;;;0.43;0.43;;;25.50;51.80;;;;;;5036883;28;93828;-56
2023/09/21 02:16:14;;;;;;;0.80;0.70;;;25.50;51.80;;;;;;5038224;28;92002;-56
2023/09/21 02:18:43;;;;;;;0.57;0.57;;;25.50;51.80;;;;;;5037226;28;92046;-56
2023/09/21 02:21:12;;;;;;;0.60;0.60;;;25.50;51.80;;;;;;5034510;28;94111;-56
2023/09/21 02:23:42;;;;;;;0.40;0.40;;;25.50;51.80;;;;;;5037306;28;93732;-56
2023/09/21 02:26:10;;;;;;;0.70;0.70;;;25.50;51.80;;;;;;5036472;28;92081;-56
2023/09/21 02:28:38;;;;;;;0.63;0.63;;;25.50;51.90;;;;;;5036800;28;92368;-56
2023/09/21 02:31:12;;;;;;;2.80;1.10;;;25.50;51.80;;;;;;5036907;28;93275;-56
2023/09/21 02:33:42;;;;;;;1.07;0.83;;;25.50;51.80;;;;;;5035480;28;93781;-56
2023/09/21 02:36:19;;;;;;;1.27;1.10;;;25.50;51.90;;;;;;5037391;28;92069;-56
2023/09/21 02:38:48;;;;;;;1.30;0.73;;;25.50;51.80;;;;;;5036547;28;91427;-55
2023/09/21 02:41:17;;;;;;;1.00;0.77;;;25.50;51.80;;;;;;5037120;28;94132;-55
2023/09/21 02:43:45;;;;;;;1.53;0.93;;;25.50;51.80;;;;;;5036313;28;92804;-55
2023/09/21 02:46:14;;;;;;;1.90;1.03;;;25.50;51.90;;;;;;5036210;28;92856;-55
2023/09/21 02:48:44;;;;;;;1.27;0.97;;;25.50;51.90;;;;;;5037223;28;92018;-55
2023/09/21 02:51:15;;;;;;;1.23;1.07;;;25.50;51.90;;;;;;5041582;27;93060;-55
2023/09/21 02:53:44;;;;;;;5.50;1.17;;;25.50;51.90;;;;;;5046922;27;93869;-55
2023/09/21 02:56:12;;;;;;;3.10;1.37;;;25.50;51.90;;;;;;5045960;27;92022;-55
2023/09/21 02:58:42;;;;;;;1.50;1.20;;;25.50;51.90;;;;;;5047275;27;92088;-55
2023/09/21 03:01:11;;;;;;;1.90;1.47;;;25.50;51.90;;;;;;5045436;27;94160;-55
2023/09/21 03:03:39;;;;;;;1.23;0.90;;;25.50;52.60;;;;;;5046314;27;92720;-55
2023/09/21 03:06:12;;;;;;;2.03;1.37;;;25.50;52.00;;;;;;5041919;27;94041;-56
2023/09/21 03:08:41;;;;;;;1.73;1.30;;;25.50;52.00;;;;;;5041731;27;92184;-55
2023/09/21 03:11:11;;;;;;;4.73;1.40;;;25.50;52.00;;;;;;5043594;27;95214;-55
2023/09/21 03:13:39;;;;;;;2.20;1.20;;;25.50;52.60;;;;;;5043877;27;93667;-55
2023/09/21 03:16:10;;;;;;;2.23;1.50;;;25.50;52.00;;;;;;5043307;27;92261;-55
2023/09/21 03:18:38;;;;;;;2.10;1.60;;;25.50;52.00;;;;;;5037235;27;92107;-56
2023/09/21 03:21:14;;;;;;;1.97;1.00;;;25.50;52.00;;;;;;5037453;27;94097;-56
2023/09/21 03:23:42;;;;;;;1.60;1.00;;;25.50;52.00;;;;;;5033854;28;92775;-56
2023/09/21 03:26:11;;;;;;;1.40;1.20;;;25.50;52.00;;;;;;5034141;28;92695;-56
2023/09/21 03:28:39;;;;;;;2.43;1.40;;;25.50;52.00;;;;;;5032780;28;91505;-56
2023/09/21 03:31:09;;;;;;;2.07;1.50;;;25.50;52.00;;;;;;5034011;27;93025;-56
2023/09/21 03:33:37;;;;;;;1.80;1.37;;;25.50;52.00;;;;;;5032536;28;92934;-56
2023/09/21 03:36:06;;;;;;;2.10;1.43;;;25.50;52.00;;;;;;5033831;28;93031;-56
2023/09/21 03:38:35;;;;;;;3.37;1.70;;;25.50;52.00;;;;;;5033665;28;92219;-56
2023/09/21 03:41:03;;;;;;;1.30;1.20;;;25.50;52.10;;;;;;5033545;28;93079;-56
2023/09/21 03:43:31;;;;;;;1.80;1.40;;;25.50;52.10;;;;;;5033887;28;92570;-56
2023/09/21 03:45:59;;;;;;;2.23;1.13;;;25.50;52.10;;;;;;5034648;28;92026;-56
2023/09/21 03:48:28;;;;;;;1.27;1.13;;;25.50;52.80;;;;;;5033063;28;92080;-56
2023/09/21 03:50:56;;;;;;;1.40;1.17;;;25.50;52.10;;;;;;5045462;27;92715;-56
2023/09/21 03:53:25;;;;;;;2.53;1.40;;;25.50;52.10;;;;;;5054595;27;93841;-56
2023/09/21 03:55:54;;;;;;;1.80;1.43;;;25.50;52.10;;;;;;5054010;27;92142;-56
2023/09/21 03:58:22;;;;;;;1.50;1.40;;;25.50;52.20;;;;;;5053952;27;92046;-56
2023/09/21 04:00:50;;;;;;;2.13;1.30;;;25.50;52.20;;;;;;5052808;27;95343;-56
2023/09/21 04:03:18;;;;;;;1.80;1.00;;;25.50;52.20;;;;;;5053711;27;93641;-56
2023/09/21 04:05:47;;;;;;;1.03;0.90;;;25.50;52.20;;;;;;5053809;27;92742;-57
2023/09/21 04:08:15;;;;;;;1.20;0.90;;;25.40;52.10;;;;;;5053502;27;92074;-56
2023/09/21 04:10:43;;;;;;;1.10;1.00;;;25.50;52.20;;;;;;5051759;27;93087;-57
2023/09/21 04:13:15;;;;;;;2.77;1.37;;;25.50;52.30;;;;;;5049453;27;92779;-57
2023/09/21 04:15:43;;;;;;;1.50;1.13;;;25.40;52.20;;;;;;5056283;27;92044;-56
2023/09/21 04:18:11;;;;;;;1.20;0.90;;;25.40;52.20;;;;;;5055451;27;91297;-58
2023/09/21 04:20:40;;;;;;;1.27;0.80;;;25.40;52.20;;;;;;5056228;27;94131;-57
2023/09/21 04:23:09;;;;;;;2.47;1.10;;;25.40;52.20;;;;;;5059467;27;93803;-56
2023/09/21 04:25:38;;;;;;;1.50;1.40;;;25.40;52.30;;;;;;5058137;27;92991;-56
2023/09/21 04:28:07;;;;;;;1.30;1.07;;;25.40;52.30;;;;;;5059299;27;92235;-57
2023/09/21 04:30:36;;;;;;;1.17;0.77;;;25.40;52.30;;;;;;5059989;27;93137;-57
2023/09/21 04:33:05;;;;;;;1.50;0.97;;;25.40;52.30;;;;;;5059615;27;92741;-57
2023/09/21 04:35:33;;;;;;;1.80;0.80;;;25.40;52.30;;;;;;5060652;27;91979;-56
2023/09/21 04:38:03;;;;;;;1.50;0.93;;;25.40;52.30;;;;;;5059356;27;91995;-56
2023/09/21 04:40:31;;;;;;;0.97;0.60;;;25.40;52.30;;;;;;5059553;27;92117;-56
2023/09/21 04:42:59;;;;;;;1.93;0.60;;;25.40;52.30;;;;;;5059091;27;92749;-56
2023/09/21 04:45:27;;;;;;;1.73;0.77;;;25.40;52.40;;;;;;5058370;27;92131;-56
2023/09/21 04:48:01;;;;;;;2.50;1.47;;;25.40;52.40;;;;;;5059207;27;93986;-56
2023/09/21 04:50:29;;;;;;;0.70;0.70;;;25.40;52.40;;;;;;5070146;27;94790;-56
2023/09/21 04:52:57;;;;;;;1.07;0.90;;;25.40;52.40;;;;;;5064113;27;92528;-56
2023/09/21 04:55:25;;;;;;;1.00;0.83;;;25.40;53.00;;;;;;5060489;27;92036;-56
2023/09/21 04:57:54;;;;;;;1.07;0.70;;;25.40;52.40;;;;;;5059372;27;92085;-56
2023/09/21 05:00:23;;;;;;;2.90;1.83;;;25.40;52.40;;;;;;5064904;27;93562;-56
2023/09/21 05:02:51;;;;;;;1.57;1.00;;;25.40;52.40;;;;;;5064850;27;93805;-57
2023/09/21 05:05:20;;;;;;;0.60;0.50;;;25.40;52.40;;;;;;5063408;27;92303;-56
2023/09/21 05:07:48;;;;;;;1.27;0.87;;;25.40;53.00;;;;;;5075877;27;91404;-57
2023/09/21 05:10:16;;;;;;;2.27;0.60;;;25.40;52.40;;;;;;5060518;27;93030;-56
2023/09/21 05:12:46;;;;;;;0.97;0.80;;;25.40;52.50;;;;;;5059374;27;93815;-57
2023/09/21 05:15:15;;;;;;;3.37;0.87;;;25.40;52.50;;;;;;5069335;27;92861;-56
2023/09/21 05:17:43;;;;;;;0.73;0.47;;;25.40;52.50;;;;;;5060461;27;92154;-56
2023/09/21 05:20:12;;;;;;;1.27;0.67;;;25.40;52.50;;;;;;5059061;27;93089;-57
2023/09/21 05:22:42;;;;;;;2.10;0.70;;;25.40;52.50;;;;;;5058415;27;92719;-57
2023/09/21 05:25:11;;;;;;;1.67;0.60;;;25.40;52.60;;;;;;5059445;27;92004;-57
2023/09/21 05:27:41;;;;;;;2.73;0.70;;;25.40;52.60;;;;;;5070548;27;92014;-56
2023/09/21 05:30:09;;;;;;;0.80;0.57;;;25.40;52.60;;;;;;5059802;27;93040;-57
2023/09/21 05:32:38;;;;;;;0.50;0.50;;;25.40;52.60;;;;;;5059212;27;93090;-56
2023/09/21 05:35:10;;;;;;;1.90;0.90;;;25.40;53.30;;;;;;5059803;27;91952;-57
2023/09/21 05:37:38;;;;;;;1.37;1.00;;;25.40;52.70;;;;;;5078808;27;92048;-57
2023/09/21 05:40:11;;;;;;;1.40;0.93;;;25.40;52.70;;;;;;5078777;27;94120;-57
2023/09/21 05:42:39;;;;;;;0.63;0.60;;;25.30;52.70;;;;;;5045277;27;93752;-57
2023/09/21 05:45:09;;;;;;;0.40;0.40;;;25.30;52.70;;;;;;5059725;27;92133;-56
2023/09/21 05:47:38;;;;;;;1.43;0.70;;;25.30;52.80;;;;;;5061924;27;92162;-56
2023/09/21 05:50:08;;;;;;;2.27;0.70;;;25.30;52.80;;;;;;5067083;27;93108;-56
2023/09/21 05:52:36;;;;;;;0.80;0.53;;;25.30;52.80;;;;;;5067463;27;92791;-56
2023/09/21 05:55:05;;;;;;;0.50;0.50;;;25.30;52.80;;;;;;5059119;27;92084;-56
2023/09/21 05:57:35;;;;;;;0.50;0.37;;;25.30;52.80;;;;;;5060425;27;91456;-56
2023/09/21 06:00:03;;;;;;;0.93;0.73;;;25.30;52.80;;;;;;5059718;27;92896;-56
2023/09/21 06:02:32;;;;;;;0.50;0.47;;;25.30;52.80;;;;;;5073799;27;92649;-56
2023/09/21 06:05:00;;;;;;;0.87;0.70;;;25.30;52.80;;;;;;5078975;27;93047;-56
2023/09/21 06:07:28;;;;;;;0.43;0.40;;;25.30;52.80;;;;;;5068049;27;92128;-57
2023/09/21 06:09:57;;;;;;;0.40;0.40;;;25.30;52.80;;;;;;5066891;27;93032;-57
2023/09/21 06:12:27;;;;;;;0.70;0.70;;;25.30;52.80;;;;;;5078294;27;93921;-57
2023/09/21 06:14:58;;;;;;;0.93;0.40;;;25.30;52.80;;;;;;5079540;27;91990;-56
2023/09/21 06:17:27;;;;;;;0.70;0.70;;;25.30;52.70;;;;;;5064859;27;92180;-57
2023/09/21 06:19:55;;;;;;;0.63;0.50;;;25.30;52.80;;;;;;5058414;27;93066;-57
2023/09/21 06:22:23;;;;;;;1.33;0.60;;;25.30;52.70;;;;;;5060479;27;93866;-56
2023/09/21 06:24:52;;;;;;;0.40;0.40;;;25.30;52.80;;;;;;5075982;27;91995;-57
2023/09/21 06:27:20;;;;;;;0.63;0.40;;;25.30;52.80;;;;;;5077520;27;92086;-57
2023/09/21 06:29:49;;;;;;;1.13;0.40;;;25.30;52.80;;;;;;5078020;27;95136;-57
2023/09/21 06:32:19;;;;;;;0.50;0.43;;;25.30;52.80;;;;;;5074355;27;93679;-57
2023/09/21 06:34:48;;;;;;;0.40;0.40;;;25.30;52.80;;;;;;5067015;27;92114;-57
2023/09/21 06:37:18;;;;;;;0.63;0.30;;;25.30;52.80;;;;;;5063910;27;92468;-56
2023/09/21 06:39:46;;;;;;;1.13;0.60;;;25.30;52.80;;;;;;5078483;27;94281;-57
2023/09/21 06:42:15;;;;;;;0.43;0.43;;;25.30;52.70;;;;;;5076926;27;93788;-57
2023/09/21 06:44:43;;;;;;;0.67;0.63;;;25.30;52.80;;;;;;5076508;27;92066;-57
2023/09/21 06:47:12;;;;;;;2.47;0.50;;;25.30;52.80;;;;;;5078396;27;91424;-57
2023/09/21 06:49:43;;;;;;;0.40;0.40;;;25.30;52.80;;;;;;5063248;27;93060;-57
2023/09/21 06:52:13;;;;;;;0.70;0.50;;;25.30;52.80;;;;;;5069885;27;92774;-57
2023/09/21 06:54:41;;;;;;;0.67;0.50;;;25.30;52.80;;;;;;5057522;27;92963;-57
2023/09/21 06:57:09;;;;;;;0.30;0.30;;;25.30;52.80;;;;;;5075455;27;92113;-57
2023/09/21 06:59:38;;;;;;;0.30;0.30;;;25.30;52.80;;;;;;5076856;27;94256;-57
2023/09/21 07:02:06;;;;;;;2.00;0.63;;;25.30;52.80;;;;;;5069439;27;92986;-57
2023/09/21 07:04:34;;;;;;;0.40;0.40;;;25.30;52.80;;;;;;5057501;27;92595;-57
2023/09/21 07:07:06;;;;;;;0.87;0.40;;;25.30;52.80;;;;;;5057422;27;92097;-57
2023/09/21 07:09:35;;;;;;;0.40;0.40;;;25.30;52.80;;;;;;5057383;27;93194;-57
2023/09/21 07:12:03;;;;;;;0.50;0.40;;;25.30;52.80;;;;;;5057464;27;93791;-57
2023/09/21 07:14:32;;;;;;;0.30;0.30;;;25.30;52.80;;;;;;5057673;27;92166;-57
2023/09/21 07:17:01;;;;;;;0.50;0.50;;;25.30;52.80;;;;;;5057581;27;92111;-56
2023/09/21 07:19:29;;;;;;;0.60;0.40;;;25.30;52.80;;;;;;5058507;27;95061;-57
2023/09/21 07:21:58;;;;;;;1.13;0.47;;;25.30;52.80;;;;;;5064505;27;94994;-57
2023/09/21 07:24:28;;;;;;;0.70;0.50;;;25.30;52.80;;;;;;5077430;27;92144;-57
2023/09/21 07:26:56;;;;;;;0.60;0.43;;;25.30;52.90;;;;;;5058432;27;92114;-57
2023/09/21 07:29:24;;;;;;;1.23;0.50;;;25.30;52.80;;;;;;5066654;27;93063;-57
2023/09/21 07:31:53;;;;;;;0.80;0.47;;;25.30;52.80;;;;;;5056593;27;94050;-57
2023/09/21 07:34:21;;;;;;;4.83;0.90;;;25.30;52.90;;;;;;5057469;27;92093;-57
2023/09/21 07:36:48;;;;;;;0.40;0.40;;;25.30;52.90;;;;;;5057713;27;91329;-57
2023/09/21 07:39:17;;;;;;;0.40;0.40;;;25.30;52.90;;;;;;5057133;27;93106;-57
2023/09/21 07:41:47;;;;;;;0.40;0.40;;;25.30;52.90;;;;;;5057209;27;92025;-57
2023/09/21 07:44:16;;;;;;;0.30;0.30;;;25.30;52.90;;;;;;5056737;27;93753;-57
2023/09/21 07:46:44;;;;;;;0.43;0.30;;;25.30;52.80;;;;;;5055758;27;92086;-56
2023/09/21 07:49:13;;;;;;;0.60;0.40;;;25.30;52.90;;;;;;5055826;27;92931;-56
2023/09/21 07:51:41;;;;;;;0.30;0.30;;;25.30;52.90;;;;;;5055624;27;92732;-57
2023/09/21 07:54:10;;;;;;;0.60;0.40;;;25.30;52.80;;;;;;5056403;27;92075;-56
2023/09/21 07:56:41;;;;;;;1.07;0.30;;;25.20;52.80;;;;;;5059739;27;92037;-57
2023/09/21 07:59:10;;;;;;;0.30;0.30;;;25.20;52.80;;;;;;5060928;27;93122;-56
2023/09/21 08:01:40;;;;;;;2.10;1.07;;;25.20;52.80;;;;;;5044564;27;92722;-57
2023/09/21 08:04:08;;;;;;;1.73;0.60;;;25.30;52.90;;;;;;5039259;27;92163;-56
2023/09/21 08:06:36;;;;;;;1.10;0.40;;;25.20;52.80;;;;;;5038929;27;92149;-56
2023/09/21 08:09:04;;;;;;;0.67;0.67;;;25.20;52.80;;;;;;5038822;28;95094;-56
2023/09/21 08:11:52;;;;;;;0.20;0.20;;;25.20;52.80;;;;;;5032353;28;92404;-57
2023/09/21 08:14:22;;;;;;;0.37;0.37;;;25.20;52.80;;;;;;5040282;27;92510;-57
2023/09/21 08:16:51;;;;;;;0.40;0.40;;;25.20;52.80;;;;;;5032613;27;92653;-57
2023/09/21 08:19:19;;;;;;;0.53;0.23;;;25.20;52.80;;;;;;5029200;27;92745;-57
2023/09/21 08:21:47;;;;;;;1.23;0.50;;;25.20;52.90;;;;;;5020490;28;92509;-57
2023/09/21 08:24:15;;;;;;;0.60;0.30;;;25.20;52.90;;;;;;5030813;27;92064;-57
2023/09/21 08:26:43;;;;;;;0.30;0.30;;;25.20;52.80;;;;;;5040038;27;91847;-57
2023/09/21 08:29:11;;;;;;;0.27;0.27;;;25.20;52.90;;;;;;5039045;27;92896;-57
2023/09/21 08:31:41;;;;;;;1.43;0.47;;;25.30;52.90;;;;;;5043864;27;93825;-57
2023/09/21 08:34:09;;;;;;;0.50;0.37;;;25.20;53.50;;;;;;5056353;27;92842;-56
2023/09/21 08:36:37;;;;;;;0.30;0.27;;;25.20;52.90;;;;;;5039475;28;91889;-57
2023/09/21 08:39:06;;;;;;;0.30;0.30;;;25.20;52.90;;;;;;5038937;27;93127;-57
2023/09/21 08:41:35;;;;;;;0.47;0.47;;;25.20;52.90;;;;;;5039545;27;92155;-57
2023/09/21 08:44:04;;;;;;;0.50;0.40;;;25.20;52.90;;;;;;5039570;27;92002;-56
2023/09/21 08:46:32;;;;;;;0.30;0.30;;;25.20;52.90;;;;;;5039089;27;92080;-57
2023/09/21 08:49:03;;;;;;;2.23;0.53;;;25.20;52.90;;;;;;5039395;27;93170;-57
2023/09/21 08:51:32;;;;;;;1.00;0.80;;;25.20;52.90;;;;;;5056151;27;92690;-56
2023/09/21 08:54:00;;;;;;;0.80;0.40;;;25.20;52.90;;;;;;5059471;27;92012;-57
2023/09/21 08:56:32;;;;;;;1.07;0.70;;;25.20;52.90;;;;;;5059286;27;92052;-57
2023/09/21 08:59:01;;;;;;;0.73;0.40;;;25.20;52.90;;;;;;5057705;27;94345;-57
2023/09/21 09:01:29;;;;;;;1.30;0.43;;;25.20;53.00;;;;;;5059182;27;93341;-56
2023/09/21 09:03:58;;;;;;;1.13;0.57;;;25.20;52.90;;;;;;5059773;27;92259;-56
2023/09/21 09:06:28;;;;;;;1.07;0.40;;;25.20;53.00;;;;;;5053252;27;92588;-56
2023/09/21 09:08:57;;;;;;;0.20;0.20;;;25.20;53.00;;;;;;5058209;27;93005;-56
2023/09/21 09:11:39;;;;;;;0.53;0.50;;;25.20;53.00;;;;;;5058582;27;94158;-56
2023/09/21 09:14:12;;;;;;;0.43;0.40;;;25.20;53.00;;;;;;5058768;27;92133;-57
2023/09/21 09:16:41;;;;;;;0.30;0.30;;;25.20;53.00;;;;;;5059711;27;91254;-56
2023/09/21 09:19:11;;;;;;;2.87;0.43;;;25.20;53.00;;;;;;5059310;27;93304;-56
2023/09/21 09:21:40;;;;;;;0.90;0.40;;;25.20;53.00;;;;;;5057369;27;92918;-57
2023/09/21 09:24:11;;;;;;;0.33;0.33;;;25.20;53.10;;;;;;5057288;27;93038;-57
2023/09/21 09:26:39;;;;;;;0.30;0.30;;;25.20;53.00;;;;;;5057309;27;92155;-57
2023/09/21 09:29:08;;;;;;;0.83;0.60;;;25.20;53.00;;;;;;5058723;27;93985;-57
2023/09/21 09:31:38;;;;;;;1.73;0.57;;;25.20;53.10;;;;;;5059448;27;92731;-57
2023/09/21 09:34:06;;;;;;;0.50;0.50;;;25.10;53.10;;;;;;5059330;27;91930;-57
2023/09/21 09:36:35;;;;;;;0.37;0.20;;;25.20;53.10;;;;;;5058768;27;92105;-57
2023/09/21 09:39:08;;;;;;;0.50;0.30;;;25.20;53.10;;;;;;5057479;27;94252;-57
2023/09/21 09:41:36;;;;;;;0.70;0.50;;;25.20;53.10;;;;;;5059570;27;92782;-56
2023/09/21 09:44:06;;;;;;;1.80;0.50;;;25.20;53.10;;;;;;5059196;27;93306;-57
2023/09/21 09:46:36;;;;;;;0.97;0.40;;;25.20;53.10;;;;;;5058724;27;92121;-57
2023/09/21 09:49:04;;;;;;;0.80;0.40;;;25.10;53.10;;;;;;5061737;27;94065;-57
2023/09/21 09:51:38;;;;;;;0.93;0.40;;;25.10;53.10;;;;;;5058082;27;94777;-57
2023/09/21 09:54:08;;;;;;;0.40;0.40;;;25.10;53.10;;;;;;5056940;27;92169;-57
2023/09/21 09:56:41;;;;;;;1.20;0.50;;;25.10;53.10;;;;;;5038404;27;92178;-57
2023/09/21 09:59:09;;;;;;;1.10;0.43;;;25.10;53.10;;;;;;5048348;27;92996;-57
2023/09/21 10:01:39;;;;;;;1.73;0.80;;;25.10;53.10;;;;;;5041910;27;92544;-57
2023/09/21 10:04:07;;;;;;;0.83;0.53;;;25.10;53.10;;;;;;5052212;27;92073;-57
2023/09/21 10:06:36;;;;;;;0.50;0.43;;;25.10;53.10;;;;;;5056160;27;92282;-57
2023/09/21 10:09:10;;;;;;;0.73;0.30;;;25.10;53.10;;;;;;5044614;27;93300;-57
2023/09/21 10:11:44;;;;;;;0.90;0.40;;;25.10;53.10;;;;;;5056680;27;92757;-56
2023/09/21 10:14:13;;;;;;;0.30;0.30;;;25.10;53.10;;;;;;5043314;27;94842;-57
2023/09/21 10:16:49;;;;;;;2.23;0.53;;;25.10;53.10;;;;;;5038502;27;92078;-57
2023/09/21 10:19:17;;;;;;;1.40;0.33;;;25.10;53.10;;;;;;5037538;28;93198;-57
2023/09/21 10:21:47;;;;;;;2.63;0.57;;;25.10;53.10;;;;;;5038965;27;94097;-57
2023/09/21 10:24:18;;;;;;;1.07;0.47;;;25.10;53.10;;;;;;5053579;27;91987;-57
2023/09/21 10:26:50;;;;;;;0.53;0.50;;;25.10;53.10;;;;;;5058653;27;92119;-57
2023/09/21 10:29:19;;;;;;;3.50;0.50;;;25.10;53.10;;;;;;5058732;27;94355;-57
2023/09/21 10:31:54;;;;;;;0.20;0.20;;;25.10;53.00;;;;;;5058459;27;92642;-57
2023/09/21 10:34:23;;;;;;;0.77;0.40;;;25.10;53.10;;;;;;5052645;27;91948;-56
2023/09/21 10:36:52;;;;;;;0.50;0.50;;;25.10;53.00;;;;;;5057920;27;92674;-57
2023/09/21 10:39:28;;;;;;;2.10;0.57;;;25.10;53.10;;;;;;5053308;27;94097;-57
2023/09/21 10:42:33;;;;;;;0.50;0.40;;;25.20;53.10;;;;;;5043869;27;93619;-57
2023/09/21 10:45:07;;;;;;;0.57;0.47;;;25.10;53.10;;;;;;5039756;27;92085;-57
2023/09/21 10:47:48;;;;;;;0.33;0.33;;;25.10;53.00;;;;;;5037699;27;91987;-57
2023/09/21 10:50:18;;;;;;;0.60;0.50;;;25.10;53.00;;;;;;5043236;27;93309;-57
2023/09/21 10:52:48;;;;;;;1.93;0.50;;;25.10;53.00;;;;;;5050443;27;92752;-57
2023/09/21 10:55:16;;;;;;;0.50;0.47;;;25.10;53.00;;;;;;5056845;27;92040;-57
2023/09/21 10:57:46;;;;;;;1.30;0.83;;;25.10;53.00;;;;;;5058068;27;91377;-57
2023/09/21 11:00:20;;;;;;;0.40;0.40;;;25.10;53.00;;;;;;5057597;27;94173;-57
2023/09/21 11:02:49;;;;;;;0.40;0.40;;;25.10;53.00;;;;;;5057760;27;92746;-57
2023/09/21 11:05:19;;;;;;;0.50;0.40;;;25.10;52.90;;;;;;5057633;27;92995;-57
2023/09/21 11:07:48;;;;;;;0.87;0.70;;;25.10;52.90;;;;;;5058186;27;92848;-57
2023/09/21 11:10:16;;;;;;;0.50;0.50;;;25.10;52.90;;;;;;5056070;27;92112;-57
2023/09/21 11:12:48;;;;;;;1.23;0.80;;;25.10;52.90;;;;;;5057527;27;92071;-57
2023/09/21 11:15:17;;;;;;;1.70;0.67;;;25.10;52.90;;;;;;5058050;27;91995;-57
2023/09/21 11:17:46;;;;;;;0.70;0.57;;;25.10;52.90;;;;;;5057958;27;91999;-57
2023/09/21 11:20:18;;;;;;;0.90;0.70;;;25.10;52.90;;;;;;5057095;27;93086;-57
2023/09/21 11:22:47;;;;;;;1.70;0.70;;;25.10;52.90;;;;;;5056927;27;92773;-57
2023/09/21 11:25:18;;;;;;;0.70;0.50;;;25.10;52.90;;;;;;5057498;27;91972;-57
2023/09/21 11:27:48;;;;;;;0.67;0.40;;;25.10;52.80;;;;;;5046129;27;92108;-57
2023/09/21 11:30:16;;;;;;;0.80;0.80;;;25.00;52.90;;;;;;5035849;28;94075;-57
2023/09/21 11:32:46;;;;;;;0.60;0.50;;;25.00;52.90;;;;;;5037106;28;92411;-57
2023/09/21 11:35:16;;;;;;;1.23;0.80;;;25.00;52.90;;;;;;5049728;27;92136;-57
2023/09/21 11:37:44;;;;;;;1.13;0.57;;;25.00;52.90;;;;;;5057419;27;92046;-57
2023/09/21 11:40:13;;;;;;;2.33;0.50;;;25.00;52.90;;;;;;5055309;27;93910;-57
2023/09/21 11:42:44;;;;;;;1.10;0.60;;;24.90;52.80;;;;;;5056025;27;93772;-57
2023/09/21 11:45:17;;;;;;;0.83;0.50;;;24.90;52.80;;;;;;5055968;27;92165;-57
2023/09/21 11:47:49;;;;;;;2.33;1.23;;;24.90;52.90;;;;;;5057345;27;91348;-57
2023/09/21 11:50:25;;;;;;;0.80;0.60;;;24.90;52.80;;;;;;5051564;27;93250;-57
2023/09/21 11:52:55;;;;;;;0.50;0.50;;;24.90;52.80;;;;;;5049285;27;93899;-57
2023/09/21 11:55:24;;;;;;;1.07;0.67;;;25.00;52.90;;;;;;5036737;27;92794;-57
2023/09/21 11:57:52;;;;;;;3.10;0.60;;;25.00;52.90;;;;;;5031232;27;92742;-57
2023/09/21 12:00:38;;;;;;;1.70;0.50;;;25.00;53.50;;;;;;5036852;27;93103;-57
2023/09/21 12:03:07;;;;;;;1.30;0.83;;;25.00;52.80;;;;;;5035262;28;92841;-57
2023/09/21 12:05:36;;;;;;;0.40;0.40;;;24.90;52.70;;;;;;5036911;27;91773;-57
2023/09/21 12:08:05;;;;;;;0.60;0.47;;;24.90;52.80;;;;;;5036383;27;92027;-57
2023/09/21 12:10:33;;;;;;;0.80;0.60;;;24.90;52.80;;;;;;5018982;27;92702;-57
2023/09/21 12:13:03;;;;;;;0.57;0.50;;;24.90;52.80;;;;;;5016451;28;93809;-57
2023/09/21 12:15:33;;;;;;;1.10;0.40;;;24.90;52.90;;;;;;5016875;28;91927;-57
2023/09/21 12:18:02;;;;;;;0.77;0.40;;;24.90;52.90;;;;;;5020349;28;92128;-57
2023/09/21 12:20:30;;;;;;;0.60;0.60;;;24.90;52.80;;;;;;5021255;28;95083;-57
2023/09/21 12:22:58;;;;;;;0.27;0.20;;;24.90;52.80;;;;;;5027420;28;93857;-58
2023/09/21 12:25:26;;;;;;;0.63;0.30;;;24.90;52.80;;;;;;5035610;27;92167;-57
2023/09/21 12:27:55;;;;;;;1.57;0.30;;;24.90;52.80;;;;;;5035460;27;92017;-58
2023/09/21 12:30:23;;;;;;;0.30;0.30;;;24.90;52.80;;;;;;5036061;27;93089;-57
2023/09/21 12:32:52;;;;;;;0.73;0.50;;;25.00;53.00;;;;;;5035859;27;93982;-61
2023/09/21 12:35:25;;;;;;;2.10;0.97;;;25.00;53.00;;;;;;5035277;27;92378;-53
2023/09/21 12:37:52;;;;;;;1.80;0.50;;;25.10;53.10;;;;;;5036805;27;91408;-55
2023/09/21 12:40:22;;;;;;;0.40;0.40;;;25.20;53.20;;;;;;5035992;27;92759;-55
2023/09/21 12:42:52;;;;;;;0.43;0.30;;;25.20;53.30;;;;;;5037519;27;92510;-53
2023/09/21 12:45:21;;;;;;;0.47;0.47;;;25.30;53.40;;;;;;5034523;27;95063;-54
2023/09/21 12:47:49;;;;;;;0.60;0.60;;;25.30;53.60;;;;;;5036383;27;93141;-55
2023/09/21 12:50:30;;;;;;;0.53;0.50;;;25.30;53.80;;;;;;5027627;27;92459;-55
2023/09/21 12:53:13;;;;;;;0.50;0.50;;;25.40;54.10;;;;;;4969170;27;93501;-54
2023/09/21 12:55:41;;;;;;;0.43;0.43;;;25.50;54.30;;;;;;5031912;27;92099;-54
2023/09/21 12:58:11;;;;;;;0.43;0.43;;;25.50;54.50;;;;;;5039754;27;92200;-53
2023/09/21 13:00:40;;;;;;;0.57;0.37;;;25.50;54.60;;;;;;5038952;28;94359;-53